Latest Weather Observations for Middle Percy Island

IDQ60801

Issued at 5:32 pm EST Friday 1 July 2016 (issued every 30 minutes, with the page automatically refreshed every 10 minutes)

About weather observations | Map of weather stations | Latest weather observations for QLD | Other Formats
Station Details ID: 200001 Name: MIDDLE PERCY ISLAND Lat: -21.66 Lon: 150.27 Height: 208.7 m
Data from the previous 72 hours. | See also: Recent months at Middle Percy Island
Date/Time
EST
Temp
°C
App
Temp
°C
Dew
Point
°C
Rel
Hum
%
Delta-T
°C
Wind Press
QNH
hPa
Press
MSL
hPa
Rain since
9am
mm
Dir  Spd
km/h
Gust
km/h
Spd
kts
Gust
kts
01/05:30pm 19.6 - - - - E 7 9 4 5 1019.9 1019.4 0.0
01/05:00pm 20.2 - - - - ESE 7 9 4 5 1019.6 1019.1 0.0
01/04:30pm 20.9 - - - - ESE 6 9 3 5 1019.6 1019.1 0.0
01/04:00pm 21.2 - - - - SE 7 13 4 7 1019.3 1018.8 0.0
01/03:30pm 22.1 - - - - ESE 6 9 3 5 1019.1 1018.6 0.0
01/03:00pm 22.1 - - - - ESE 7 9 4 5 1019.0 1018.5 0.0
01/02:30pm 22.1 - - - - SE 9 11 5 6 1019.0 1018.5 0.0
01/02:00pm 21.6 - - - - S 11 15 6 8 1019.3 1018.8 0.0
01/01:30pm 22.1 - - - - S 13 19 7 10 1019.6 1019.1 0.0
01/01:00pm 21.8 - - - - SSW 13 20 7 11 1020.0 1019.5 0.0
01/12:30pm 21.8 - - - - S 11 17 6 9 1020.5 1019.9 0.0
01/12:00pm 21.2 - - - - SSW 13 19 7 10 1020.8 1020.2 0.0
01/11:30am 21.9 - - - - S 13 17 7 9 1021.2 1020.6 0.0
01/11:00am 21.3 - - - - S 15 20 8 11 1021.5 1020.9 0.0
01/10:30am 21.5 - - - - S 13 17 7 9 1021.6 1021.0 0.0
01/10:00am 20.7 - - - - S 9 15 5 8 1021.8 1021.2 0.0
01/09:30am 20.3 - - - - SSW 13 19 7 10 1021.9 1021.3 0.0
01/09:00am 21.5 - - - - SSW 7 9 4 5 1022.1 1021.5 0.0
01/08:30am 21.9 - - - - S 4 6 2 3 1022.0 1021.4 0.0
01/08:00am 21.9 - - - - CALM 0 0 0 0 1021.8 1021.2 0.0
01/07:30am 21.4 - - - - CALM 0 0 0 0 1021.5 1020.9 0.0
01/07:00am 20.3 - - - - NE 2 2 1 1 1021.2 1020.6 0.0
01/06:30am 19.9 - - - - ENE 6 6 3 3 1020.8 1020.1 0.0
01/06:00am 19.9 - - - - NE 6 7 3 4 1020.4 1019.7 0.0
01/05:30am 19.4 - - - - NE 7 9 4 5 1019.9 1019.3 0.0
01/05:00am 19.6 - - - - NNE 9 11 5 6 1019.7 1019.1 0.0
01/04:30am 19.5 - - - - NNE 11 13 6 7 1019.5 1018.9 0.0
01/04:00am 19.4 - - - - NNE 9 11 5 6 1019.6 1019.0 0.0
01/03:30am 19.5 - - - - NE 9 11 5 6 1019.6 1019.0 0.0
01/03:00am 19.7 - - - - NE 9 11 5 6 1019.6 1019.0 0.0
01/02:30am 19.6 - - - - NE 9 11 5 6 1019.8 1019.2 0.0
01/02:00am 19.6 - - - - NE 9 13 5 7 1020.0 1019.4 0.0
01/01:30am 19.7 - - - - NE 9 11 5 6 1020.4 1019.7 0.0
01/01:00am 19.7 - - - - NE 9 15 5 8 1020.5 1019.8 0.0
01/12:30am 20.1 - - - - NE 11 17 6 9 1020.6 1019.9 0.0
01/12:00am 20.3 - - - - NE 13 17 7 9 1020.8 1020.1 0.0
 
Date/Time
EST
Temp
°C
App
Temp
°C
Dew
Point
°C
Rel
Hum
%
Delta-T
°C
Wind Press
QNH
hPa
Press
MSL
hPa
Rain since
9am
mm
Dir  Spd
km/h
Gust
km/h
Spd
kts
Gust
kts
30/11:30pm 20.0 - - - - NE 15 22 8 12 1021.0 1020.3 0.0
30/11:00pm 19.9 - - - - ENE 11 19 6 10 1021.2 1020.6 0.0
30/10:30pm 20.0 - - - - ENE 13 19 7 10 1021.3 1020.7 0.0
30/10:00pm 20.0 - - - - E 13 19 7 10 1021.5 1020.9 0.0
30/09:30pm 19.9 - - - - E 15 19 8 10 1021.7 1021.1 0.0
30/09:00pm 19.8 - - - - E 11 19 6 10 1021.8 1021.2 0.0
30/08:30pm 19.5 - - - - E 9 13 5 7 1021.9 1021.3 0.0
30/08:00pm 19.7 - - - - E 9 11 5 6 1021.9 1021.3 0.0
30/07:30pm 19.8 - - - - ESE 11 17 6 9 1021.7 1021.1 0.0
30/07:00pm 19.6 - - - - E 9 13 5 7 1021.4 1020.8 0.0
30/06:30pm 19.3 - - - - ESE 9 15 5 8 1021.1 1020.4 0.0
30/06:00pm 19.4 - - - - ESE 11 15 6 8 1020.8 1020.1 0.0
30/05:30pm 19.3 - - - - ESE 9 13 5 7 1020.7 1020.0 0.0
30/05:00pm 19.9 - - - - ESE 11 15 6 8 1020.6 1019.9 0.0
30/04:30pm 20.4 - - - - SE 7 13 4 7 1020.2 1019.6 0.0
30/04:00pm 20.7 - - - - SSE 15 20 8 11 1020.0 1019.4 0.0
30/03:30pm 20.8 - - - - S 13 17 7 9 1019.9 1019.3 0.0
30/03:00pm 20.7 - - - - S 13 19 7 10 1019.9 1019.3 0.0
30/02:30pm 20.5 - - - - S 13 17 7 9 1019.9 1019.3 0.0
30/02:00pm 20.2 - - - - SSW 13 19 7 10 1020.0 1019.4 0.0
30/01:30pm 20.2 - - - - S 19 24 10 13 1020.1 1019.5 0.0
30/01:00pm 22.5 - - - - S 13 19 7 10 1020.6 1019.9 0.0
30/12:30pm 23.1 - - - - NE 13 22 7 12 1021.0 1020.3 0.0
30/12:00pm 23.4 - - - - NE 13 20 7 11 1021.4 1020.8 0.0
30/11:30am 23.1 - - - - NE 11 20 6 11 1021.6 1021.0 0.0
30/11:00am 22.9 - - - - NE 17 24 9 13 1022.0 1021.4 0.0
30/10:30am 22.4 - - - - NE 13 20 7 11 1022.5 1021.9 0.0
30/10:00am 21.2 - - - - NE 13 20 7 11 1022.6 1022.0 0.0
30/09:30am 21.9 - - - - ENE 13 22 7 12 1022.7 1022.1 0.0
30/09:00am 21.8 - - - - NE 15 22 8 12 1022.7 1022.1 0.0
30/08:30am 21.2 - - - - ENE 17 28 9 15 1022.6 1022.0 0.0
30/08:00am 19.9 - - - - ESE 9 17 5 9 1022.3 1021.7 0.0
30/07:30am 18.9 - - - - SE 17 24 9 13 1022.1 1021.5 0.0
30/07:00am 18.8 - - - - SE 20 28 11 15 1021.9 1021.3 0.0
30/06:30am 19.0 - - - - SE 24 33 13 18 1021.6 1021.0 0.0
30/06:00am 18.9 - - - - SE 22 32 12 17 1021.3 1020.7 0.0
30/05:30am 19.1 - - - - SE 24 33 13 18 1021.3 1020.7 0.0
30/05:00am 19.1 - - - - SE 24 37 13 20 1021.2 1020.6 0.0
30/04:30am 18.9 - - - - SE 20 28 11 15 1021.3 1020.7 0.0
30/04:00am 18.5 - - - - SSE 15 24 8 13 1021.3 1020.7 0.0
30/03:30am 18.2 - - - - SE 17 26 9 14 1021.4 1020.8 0.0
30/03:00am 18.3 - - - - SE 17 24 9 13 1021.6 1021.0 0.0
30/02:30am 18.4 - - - - ESE 20 26 11 14 1022.0 1021.4 0.0
30/02:00am 18.3 - - - - SE 20 30 11 16 1022.4 1021.8 0.0
30/01:30am 18.4 - - - - ESE 22 32 12 17 1022.6 1022.0 0.0
30/01:00am 18.6 - - - - ESE 22 32 12 17 1022.9 1022.3 0.0
30/12:30am 18.3 - - - - SE 15 22 8 12 1023.2 1022.6 0.0
30/12:00am 18.1 - - - - SE 20 32 11 17 1023.3 1022.7 0.0
 
Date/Time
EST
Temp
°C
App
Temp
°C
Dew
Point
°C
Rel
Hum
%
Delta-T
°C
Wind Press
QNH
hPa
Press
MSL
hPa
Rain since
9am
mm
Dir  Spd
km/h
Gust
km/h
Spd
kts
Gust
kts
29/11:30pm 18.5 - - - - SE 19 28 10 15 1023.4 1022.8 0.0
29/11:00pm 18.6 - - - - SE 22 32 12 17 1023.8 1023.2 0.0
29/10:30pm 18.3 - - - - SE 20 32 11 17 1024.0 1023.4 0.0
29/10:00pm 18.3 - - - - ESE 26 39 14 21 1024.3 1023.7 0.0
29/09:30pm 18.2 - - - - SE 24 32 13 17 1024.1 1023.5 0.0
29/09:00pm 18.1 - - - - SE 22 33 12 18 1024.0 1023.4 0.0
29/08:30pm 17.9 - - - - SE 24 33 13 18 1024.0 1023.4 0.0
29/08:00pm 17.6 - - - - SE 22 32 12 17 1024.0 1023.4 0.0
29/07:30pm 17.7 - - - - SE 24 35 13 19 1024.0 1023.4 0.0
29/07:00pm 17.4 - - - - SE 22 33 12 18 1023.9 1023.3 0.0
29/06:30pm 17.3 - - - - SE 24 35 13 19 1023.7 1023.1 0.0
29/06:00pm 16.9 - - - - SSE 24 35 13 19 1023.3 1022.7 0.0
29/05:30pm 16.9 - - - - SE 26 37 14 20 1023.1 1022.5 0.0
29/05:00pm 16.9 - - - - SSE 24 35 13 19 1022.9 1022.3 0.0
29/04:30pm 17.1 - - - - SSE 28 37 15 20 1022.7 1022.1 0.0
29/04:00pm 17.3 - - - - SSE 28 39 15 21 1022.5 1021.9 0.0
29/03:30pm 17.5 - - - - SSE 28 39 15 21 1022.3 1021.7 0.0
29/03:00pm 17.6 - - - - SSE 30 41 16 22 1022.2 1021.6 0.0
29/02:30pm 18.3 - - - - SSE 28 41 15 22 1022.1 1021.5 0.0
29/02:00pm 18.3 - - - - SSE 28 39 15 21 1022.3 1021.7 0.0
29/01:30pm 18.3 - - - - SSE 28 39 15 21 1022.4 1021.8 0.0
29/01:00pm 18.5 - - - - SSE 28 39 15 21 1022.7 1022.1 0.0
29/12:30pm 18.2 - - - - SSE 30 44 16 24 1022.9 1022.3 0.0
29/12:00pm 18.0 - - - - SSE 33 44 18 24 1023.5 1022.9 0.0
29/11:30am 18.5 - - - - SSE 30 41 16 22 1023.9 1023.3 0.0
29/11:00am 17.7 - - - - SSE 30 43 16 23 1024.3 1023.7 0.0
29/10:30am 17.6 - - - - SSE 28 37 15 20 1024.6 1024.0 0.0
29/10:00am 17.1 - - - - SSE 30 37 16 20 1024.7 1024.1 0.0
29/09:30am 16.5 - - - - SSE 30 39 16 21 1024.7 1024.1 0.0
29/09:00am 16.1 - - - - SSE 33 39 18 21 1024.8 1024.2 0.0
29/08:30am 15.8 - - - - S 28 43 15 23 1024.8 1024.2 0.0
29/08:00am 15.2 - - - - SSE 28 39 15 21 1024.6 1024.0 0.0
29/07:30am 14.8 - - - - SSE 28 37 15 20 1024.4 1023.8 0.0
29/07:00am 14.5 - - - - SSE 28 37 15 20 1024.3 1023.7 0.0
29/06:30am 14.4 - - - - SSE 28 37 15 20 1024.0 1023.4 0.0
29/06:00am 14.4 - - - - SSE 26 35 14 19 1023.7 1023.1 0.0
29/05:30am 14.4 - - - - SSE 26 35 14 19 1023.5 1022.9 0.0
29/05:00am 14.6 - - - - SSE 28 35 15 19 1023.4 1022.8 0.0
29/04:30am 14.6 - - - - SSE 24 33 13 18 1023.5 1022.9 0.0
29/04:00am 14.5 - - - - SSE 26 33 14 18 1023.6 1023.0 0.0
29/03:30am 14.4 - - - - SSE 24 32 13 17 1023.5 1022.9 0.0
29/03:00am 14.4 - - - - SSE 24 37 13 20 1023.5 1022.9 0.0
29/02:30am 14.7 - - - - SSE 28 41 15 22 1023.7 1023.1 0.0
29/02:00am 14.7 - - - - SSE 26 35 14 19 1023.8 1023.2 0.0
29/01:30am 14.4 - - - - SSE 24 32 13 17 1024.0 1023.4 0.0
29/01:00am 14.8 - - - - SSE 28 33 15 18 1024.3 1023.7 0.0
29/12:30am 15.1 - - - - SSE 26 37 14 20 1024.2 1023.6 0.0
29/12:00am 15.2 - - - - S 28 35 15 19 1024.2 1023.6 0.0
 
Date/Time
EST
Temp
°C
App
Temp
°C
Dew
Point
°C
Rel
Hum
%
Delta-T
°C
Wind Press
QNH
hPa
Press
MSL
hPa
Rain since
9am
mm
Dir  Spd
km/h
Gust
km/h
Spd
kts
Gust
kts
28/11:30pm 15.0 - - - - S 30 39 16 21 1024.2 1023.6 0.0
28/11:00pm 15.1 - - - - SSE 26 41 14 22 1024.4 1023.8 0.0
28/10:30pm 15.1 - - - - S 30 41 16 22 1024.0 1023.4 0.0
28/10:00pm 14.9 - - - - S 30 41 16 22 1024.1 1023.5 0.0
28/09:30pm 15.1 - - - - S 30 41 16 22 1024.1 1023.5 0.0
28/09:00pm 15.1 - - - - S 26 35 14 19 1024.1 1023.5 0.0
28/08:30pm 15.1 - - - - S 24 32 13 17 1024.3 1023.7 0.0
28/08:00pm 15.1 - - - - S 22 28 12 15 1024.2 1023.6 0.0
28/07:30pm 15.4 - - - - S 30 41 16 22 1023.9 1023.3 0.0
28/07:00pm 15.0 - - - - S 24 32 13 17 1023.7 1023.1 0.0
28/06:30pm 14.7 - - - - S 24 32 13 17 1023.4 1022.8 0.0
28/06:00pm 14.7 - - - - S 24 30 13 16 1022.8 1022.2 0.0

Other Formats:

Comma delimited format used in spreadsheet applications
http://www.bom.gov.au/fwo/IDQ60801/IDQ60801.94372.axf

JavaScript Object Notation format (JSON) in row-major order
http://www.bom.gov.au/fwo/IDQ60801/IDQ60801.94372.json